Time;durP1;ratioP1;P1;durP2;ratioP2;P2;SDS_P1;SDS_P2;PMS_P1;PMS_P2;Temp;Humidity;BMP_temperature;BMP_pressure;BME280_temperature;BME280_humidity;BME280_pressure;Samples;Min_cycle;Max_cycle;Signal;HPM_P1;HPM_P2
2022/07/26 00:02:05;;;;;;;14.18;3.80;;;;;;;;;;5007350;28;20038;-55
2022/07/26 00:04:30;;;;;;;11.65;3.97;;;;;;;;;;5007220;28;20037;-54
2022/07/26 00:06:56;;;;;;;14.98;3.70;;;;;;;;;;5007682;28;20042;-55
2022/07/26 00:09:22;;;;;;;11.70;3.15;;;;;;;;;;5007740;28;20029;-55
2022/07/26 00:11:48;;;;;;;8.73;3.80;;;;;;;;;;5007419;28;20034;-54
2022/07/26 00:14:14;;;;;;;29.00;3.95;;;;;;;;;;5004718;28;20113;-54
2022/07/26 00:16:40;;;;;;;7.45;2.90;;;;;;;;;;5002932;28;20033;-54
2022/07/26 00:19:08;;;;;;;11.30;3.20;;;;;;;;;;5005432;28;20025;-56
2022/07/26 00:21:36;;;;;;;7.00;3.13;;;;;;;;;;5005174;28;20048;-56
2022/07/26 00:24:05;;;;;;;12.32;3.85;;;;;;;;;;5007609;28;20033;-55
2022/07/26 00:26:31;;;;;;;13.55;3.30;;;;;;;;;;5002779;28;20113;-54
2022/07/26 00:28:57;;;;;;;9.05;3.03;;;;;;;;;;4999307;28;20100;-57
2022/07/26 00:31:23;;;;;;;9.40;3.00;;;;;;;;;;5003124;28;20483;-56
2022/07/26 00:33:48;;;;;;;6.10;3.45;;;;;;;;;;5005221;28;20076;-55
2022/07/26 00:36:14;;;;;;;6.05;3.00;;;;;;;;;;5003831;28;20026;-56
2022/07/26 00:38:40;;;;;;;3.15;2.63;;;;;;;;;;5004127;28;20038;-54
2022/07/26 00:41:06;;;;;;;7.30;2.83;;;;;;;;;;5005353;28;20022;-53
2022/07/26 00:43:32;;;;;;;7.20;3.03;;;;;;;;;;5004191;28;20018;-51
2022/07/26 00:45:58;;;;;;;3.53;2.80;;;;;;;;;;5001512;28;20037;-54
2022/07/26 00:48:24;;;;;;;5.28;2.92;;;;;;;;;;5006385;28;20539;-55
2022/07/26 00:50:52;;;;;;;10.63;2.70;;;;;;;;;;5007302;28;20410;-55
2022/07/26 00:53:20;;;;;;;13.50;3.33;;;;;;;;;;5005702;28;20038;-56
2022/07/26 00:55:48;;;;;;;17.55;3.10;;;;;;;;;;5003384;28;20066;-56
2022/07/26 00:58:14;;;;;;;7.50;2.80;;;;;;;;;;5006859;28;20030;-54
2022/07/26 01:00:40;;;;;;;3.67;2.47;;;;;;;;;;5004350;28;20025;-54
2022/07/26 01:03:06;;;;;;;7.45;3.03;;;;;;;;;;5004063;28;20033;-57
2022/07/26 01:05:32;;;;;;;13.73;3.03;;;;;;;;;;5007578;28;20109;-55
2022/07/26 01:07:58;;;;;;;10.73;3.28;;;;;;;;;;5001736;28;20071;-54
2022/07/26 01:10:24;;;;;;;12.48;3.15;;;;;;;;;;5005599;28;20638;-56
2022/07/26 01:12:49;;;;;;;5.75;2.70;;;;;;;;;;5005695;28;20500;-55
2022/07/26 01:15:17;;;;;;;5.25;3.03;;;;;;;;;;5003522;28;20057;-54
2022/07/26 01:17:43;;;;;;;7.00;2.60;;;;;;;;;;5002210;28;20433;-54
2022/07/26 01:20:11;;;;;;;3.17;2.83;;;;;;;;;;5001693;28;20856;-57
2022/07/26 01:22:37;;;;;;;6.10;2.72;;;;;;;;;;5002429;28;20084;-55
2022/07/26 01:25:03;;;;;;;11.90;2.67;;;;;;;;;;5004534;28;20071;-56
2022/07/26 01:27:29;;;;;;;9.10;2.70;;;;;;;;;;5003977;28;20042;-54
2022/07/26 01:29:55;;;;;;;3.70;2.20;;;;;;;;;;5006047;28;20039;-56
2022/07/26 01:32:21;;;;;;;6.57;2.50;;;;;;;;;;5005419;28;20025;-56
2022/07/26 01:34:46;;;;;;;7.25;2.60;;;;;;;;;;5002934;28;20035;-54
2022/07/26 01:37:12;;;;;;;5.85;2.75;;;;;;;;;;4999959;28;20042;-57
2022/07/26 01:39:38;;;;;;;6.05;2.50;;;;;;;;;;5006487;28;20386;-56
2022/07/26 01:42:03;;;;;;;4.68;2.50;;;;;;;;;;5005113;28;20387;-55
2022/07/26 01:44:29;;;;;;;7.10;2.33;;;;;;;;;;5003669;28;20041;-51
2022/07/26 01:46:55;;;;;;;4.80;2.75;;;;;;;;;;5002400;28;20042;-55
2022/07/26 01:49:20;;;;;;;12.40;3.10;;;;;;;;;;5004501;28;20033;-54
2022/07/26 01:51:46;;;;;;;7.95;2.72;;;;;;;;;;5003448;28;20070;-55
2022/07/26 01:54:12;;;;;;;8.05;2.05;;;;;;;;;;5003358;28;20104;-56
2022/07/26 01:56:38;;;;;;;5.63;2.22;;;;;;;;;;5004446;28;20411;-53
2022/07/26 01:59:03;;;;;;;3.60;2.20;;;;;;;;;;5005958;28;20025;-56
2022/07/26 02:01:29;;;;;;;6.35;2.45;;;;;;;;;;5003838;28;20108;-54
2022/07/26 02:03:55;;;;;;;4.40;2.70;;;;;;;;;;5006741;28;20036;-54
2022/07/26 02:06:20;;;;;;;6.57;2.20;;;;;;;;;;5005490;28;20037;-56
2022/07/26 02:08:46;;;;;;;5.50;1.80;;;;;;;;;;5007322;28;20092;-53
2022/07/26 02:11:12;;;;;;;2.63;2.00;;;;;;;;;;5008527;28;20033;-55
2022/07/26 02:13:41;;;;;;;6.10;2.10;;;;;;;;;;5006028;28;20466;-55
2022/07/26 02:16:13;;;;;;;7.22;2.38;;;;;;;;;;5006926;28;20030;-53
2022/07/26 02:18:39;;;;;;;4.88;2.08;;;;;;;;;;5007165;28;20026;-55
2022/07/26 02:21:06;;;;;;;12.70;2.50;;;;;;;;;;5004691;28;20411;-55
2022/07/26 02:23:32;;;;;;;6.15;2.00;;;;;;;;;;5009284;28;20030;-55
2022/07/26 02:25:59;;;;;;;8.63;2.00;;;;;;;;;;5009018;28;20545;-56
2022/07/26 02:28:25;;;;;;;4.93;2.47;;;;;;;;;;5009034;28;20291;-55
2022/07/26 02:30:50;;;;;;;2.25;2.05;;;;;;;;;;5010335;28;20029;-56
2022/07/26 02:33:17;;;;;;;5.00;1.80;;;;;;;;;;5006818;28;20034;-55
2022/07/26 02:35:43;;;;;;;4.50;1.95;;;;;;;;;;5009360;28;20506;-55
2022/07/26 02:38:12;;;;;;;7.53;2.20;;;;;;;;;;5004906;28;20073;-56
2022/07/26 02:40:39;;;;;;;7.40;2.42;;;;;;;;;;5006711;28;20124;-54
2022/07/26 02:43:06;;;;;;;3.15;2.10;;;;;;;;;;5007317;28;20017;-54
2022/07/26 02:45:32;;;;;;;3.75;2.50;;;;;;;;;;5005910;28;20085;-56
2022/07/26 02:47:58;;;;;;;6.07;1.90;;;;;;;;;;5005589;28;20027;-54
2022/07/26 02:50:26;;;;;;;6.30;2.30;;;;;;;;;;5008694;28;20045;-50
2022/07/26 02:52:52;;;;;;;6.95;2.00;;;;;;;;;;5007014;28;20071;-55
2022/07/26 02:55:21;;;;;;;3.85;2.00;;;;;;;;;;5006389;28;20065;-56
2022/07/26 02:58:02;;;;;;;8.77;2.33;;;;;;;;;;4962576;28;20046;-55
2022/07/26 03:00:28;;;;;;;8.07;1.98;;;;;;;;;;4965521;28;20050;-55
2022/07/26 03:02:54;;;;;;;4.22;1.83;;;;;;;;;;4965102;28;20035;-55
2022/07/26 03:05:20;;;;;;;6.93;2.35;;;;;;;;;;4966272;28;20074;-54
2022/07/26 03:07:46;;;;;;;2.28;1.95;;;;;;;;;;4962517;28;20038;-56
2022/07/26 03:10:13;;;;;;;5.80;2.10;;;;;;;;;;4964456;28;20489;-55
2022/07/26 03:12:38;;;;;;;4.93;1.95;;;;;;;;;;4965670;28;21856;-56
2022/07/26 03:15:05;;;;;;;4.53;1.92;;;;;;;;;;4958859;28;20598;-50
2022/07/26 03:17:31;;;;;;;8.52;2.05;;;;;;;;;;4959996;28;20033;-52
2022/07/26 03:19:57;;;;;;;2.85;2.10;;;;;;;;;;4962772;28;20038;-51
2022/07/26 03:22:22;;;;;;;6.68;1.80;;;;;;;;;;4966495;28;20049;-55
2022/07/26 03:24:48;;;;;;;3.75;1.70;;;;;;;;;;4964568;28;20039;-56
2022/07/26 03:27:13;;;;;;;5.53;1.88;;;;;;;;;;4966313;28;20039;-54
2022/07/26 03:29:39;;;;;;;3.20;1.90;;;;;;;;;;4963334;28;20129;-54
2022/07/26 03:32:05;;;;;;;3.58;1.80;;;;;;;;;;4960579;28;20090;-55
2022/07/26 03:34:31;;;;;;;5.18;1.90;;;;;;;;;;4972299;28;20380;-54
2022/07/26 03:36:57;;;;;;;4.53;2.00;;;;;;;;;;5006229;28;20041;-55
2022/07/26 03:39:24;;;;;;;7.30;1.98;;;;;;;;;;5005081;28;20022;-55
2022/07/26 03:41:49;;;;;;;3.88;1.80;;;;;;;;;;5005850;28;20022;-55
2022/07/26 03:44:15;;;;;;;4.60;1.73;;;;;;;;;;5006474;28;20599;-55
2022/07/26 03:46:41;;;;;;;6.22;1.90;;;;;;;;;;5001860;28;20042;-57
2022/07/26 03:49:06;;;;;;;6.32;1.90;;;;;;;;;;5008050;28;20109;-50
2022/07/26 03:51:32;;;;;;;5.88;2.00;;;;;;;;;;5002229;28;20380;-54
2022/07/26 03:53:59;;;;;;;3.10;1.90;;;;;;;;;;5006308;28;20068;-53
2022/07/26 03:56:27;;;;;;;4.22;1.85;;;;;;;;;;5006504;28;20049;-53
2022/07/26 03:59:13;;;;;;;3.50;1.77;;;;;;;;;;5003809;28;20038;-55
2022/07/26 04:01:40;;;;;;;6.75;1.85;;;;;;;;;;5005176;28;20042;-54
2022/07/26 04:04:08;;;;;;;3.42;1.73;;;;;;;;;;5005561;28;20711;-54
2022/07/26 04:06:34;;;;;;;8.98;1.95;;;;;;;;;;5002405;28;20072;-56
2022/07/26 04:09:00;;;;;;;7.20;1.95;;;;;;;;;;5002835;28;20101;-51
2022/07/26 04:11:26;;;;;;;6.03;1.88;;;;;;;;;;5006635;28;20431;-53
2022/07/26 04:13:58;;;;;;;8.30;1.95;;;;;;;;;;5002647;28;20030;-56
2022/07/26 04:16:39;;;;;;;5.95;2.13;;;;;;;;;;5006439;28;20041;-55
2022/07/26 04:19:20;;;;;;;2.53;1.97;;;;;;;;;;5001187;28;20025;-52
2022/07/26 04:21:46;;;;;;;12.88;2.03;;;;;;;;;;5003065;28;20779;-54
2022/07/26 04:24:12;;;;;;;4.75;1.80;;;;;;;;;;5006459;28;20034;-55
2022/07/26 04:26:38;;;;;;;6.13;1.80;;;;;;;;;;5004539;28;20057;-54
2022/07/26 04:29:03;;;;;;;5.20;1.77;;;;;;;;;;5000904;28;20089;-51
2022/07/26 04:31:29;;;;;;;3.75;1.60;;;;;;;;;;5006861;28;20493;-56
2022/07/26 04:33:55;;;;;;;11.98;2.15;;;;;;;;;;5004857;28;20114;-51
2022/07/26 04:36:21;;;;;;;4.07;2.42;;;;;;;;;;5004470;28;20486;-53
2022/07/26 04:38:47;;;;;;;5.13;2.15;;;;;;;;;;5003193;28;20032;-55
2022/07/26 04:41:12;;;;;;;3.70;1.83;;;;;;;;;;5007141;28;20037;-55
2022/07/26 04:43:38;;;;;;;5.47;1.80;;;;;;;;;;5004108;28;20049;-53
2022/07/26 04:46:04;;;;;;;3.45;1.70;;;;;;;;;;5006365;28;20030;-56
2022/07/26 04:48:30;;;;;;;5.55;1.85;;;;;;;;;;4999853;28;20057;-56
2022/07/26 04:50:56;;;;;;;6.20;1.98;;;;;;;;;;5005236;28;20057;-53
2022/07/26 04:53:21;;;;;;;5.50;1.73;;;;;;;;;;5000785;28;20495;-52
2022/07/26 04:55:47;;;;;;;5.88;1.60;;;;;;;;;;5004108;28;20045;-52
2022/07/26 04:58:13;;;;;;;4.88;1.40;;;;;;;;;;5003682;28;20030;-53
2022/07/26 05:00:39;;;;;;;3.83;1.65;;;;;;;;;;5004551;28;20157;-54
2022/07/26 05:03:04;;;;;;;2.50;1.60;;;;;;;;;;5006635;28;20034;-52
2022/07/26 05:05:31;;;;;;;4.50;1.45;;;;;;;;;;5003626;28;20467;-55
2022/07/26 05:08:00;;;;;;;2.33;1.55;;;;;;;;;;4998633;28;20762;-55
2022/07/26 05:10:34;;;;;;;7.13;1.67;;;;;;;;;;5004093;28;20076;-55
2022/07/26 05:13:02;;;;;;;8.02;1.80;;;;;;;;;;5005367;28;20024;-55
2022/07/26 05:15:30;;;;;;;6.28;1.98;;;;;;;;;;5006623;28;20037;-54
2022/07/26 05:18:04;;;;;;;9.65;1.60;;;;;;;;;;4999681;28;20053;-55
2022/07/26 05:20:30;;;;;;;5.45;1.48;;;;;;;;;;5006225;28;20113;-54
2022/07/26 05:22:56;;;;;;;11.70;1.70;;;;;;;;;;5005559;28;20018;-55
2022/07/26 05:25:22;;;;;;;4.68;1.42;;;;;;;;;;5004716;28;20025;-56
2022/07/26 05:27:48;;;;;;;5.32;1.65;;;;;;;;;;5002855;28;20445;-53
2022/07/26 05:30:13;;;;;;;4.30;1.30;;;;;;;;;;5005021;28;20048;-54
2022/07/26 05:32:39;;;;;;;10.48;1.40;;;;;;;;;;5003936;28;20130;-54
2022/07/26 05:35:06;;;;;;;5.60;1.67;;;;;;;;;;5005973;28;20028;-54
2022/07/26 05:37:31;;;;;;;9.52;1.80;;;;;;;;;;5004646;28;20065;-55
2022/07/26 05:39:58;;;;;;;13.45;1.60;;;;;;;;;;5004393;28;20061;-55
2022/07/26 05:42:24;;;;;;;10.85;1.45;;;;;;;;;;5004824;28;20494;-55
2022/07/26 05:44:50;;;;;;;7.85;1.42;;;;;;;;;;5007825;28;20088;-55
2022/07/26 05:47:16;;;;;;;6.45;1.42;;;;;;;;;;5010224;28;20033;-55
2022/07/26 05:49:42;;;;;;;4.72;1.50;;;;;;;;;;5005141;28;20384;-55
2022/07/26 05:52:08;;;;;;;2.45;1.33;;;;;;;;;;5007003;28;20132;-51
2022/07/26 05:54:34;;;;;;;6.03;1.30;;;;;;;;;;5008138;28;20038;-55
2022/07/26 05:56:59;;;;;;;4.88;0.90;;;;;;;;;;5008896;28;20083;-55
2022/07/26 05:59:25;;;;;;;5.35;1.27;;;;;;;;;;5006904;28;20108;-51
2022/07/26 06:01:54;;;;;;;7.20;1.52;;;;;;;;;;5006752;28;20037;-53
2022/07/26 06:04:22;;;;;;;8.18;1.25;;;;;;;;;;5009990;28;20032;-55
2022/07/26 06:06:48;;;;;;;7.05;1.42;;;;;;;;;;5007314;28;20727;-56
2022/07/26 06:09:13;;;;;;;11.25;1.35;;;;;;;;;;5003033;28;20034;-53
2022/07/26 06:11:39;;;;;;;3.67;1.02;;;;;;;;;;5011141;28;20048;-55
2022/07/26 06:14:05;;;;;;;4.07;1.20;;;;;;;;;;5007215;28;20445;-51
2022/07/26 06:16:31;;;;;;;6.47;1.05;;;;;;;;;;5001730;28;20029;-52
2022/07/26 06:18:56;;;;;;;8.15;1.45;;;;;;;;;;5007463;28;20478;-55
2022/07/26 06:21:22;;;;;;;8.65;1.33;;;;;;;;;;5007472;28;20056;-54
2022/07/26 06:23:48;;;;;;;6.22;1.20;;;;;;;;;;5007472;28;20105;-55
2022/07/26 06:26:14;;;;;;;4.88;1.42;;;;;;;;;;5006085;28;20042;-54
2022/07/26 06:28:40;;;;;;;5.70;1.30;;;;;;;;;;5005285;28;20774;-54
2022/07/26 06:31:06;;;;;;;6.45;1.13;;;;;;;;;;5006293;28;20034;-52
2022/07/26 06:33:32;;;;;;;6.22;1.50;;;;;;;;;;5005785;28;20106;-56
2022/07/26 06:35:57;;;;;;;13.30;1.50;;;;;;;;;;5007119;28;20112;-56
2022/07/26 06:38:23;;;;;;;2.50;1.10;;;;;;;;;;5006798;28;20406;-51
2022/07/26 06:40:49;;;;;;;6.57;1.55;;;;;;;;;;5001987;28;20030;-56
2022/07/26 06:43:15;;;;;;;6.13;1.10;;;;;;;;;;5008825;28;20034;-54
2022/07/26 06:45:40;;;;;;;4.45;1.20;;;;;;;;;;5004568;28;20034;-56
2022/07/26 06:48:06;;;;;;;2.85;0.93;;;;;;;;;;5003563;28;21264;-55
2022/07/26 06:50:32;;;;;;;1.38;0.93;;;;;;;;;;5008791;28;20026;-53
2022/07/26 06:52:57;;;;;;;3.47;1.20;;;;;;;;;;5007834;28;20113;-54
2022/07/26 06:55:23;;;;;;;3.85;1.02;;;;;;;;;;5008408;28;20041;-54
2022/07/26 06:57:49;;;;;;;4.13;1.23;;;;;;;;;;5004418;28;20076;-53
2022/07/26 07:00:15;;;;;;;1.20;1.10;;;;;;;;;;5006999;28;20029;-56
2022/07/26 07:02:41;;;;;;;7.80;1.20;;;;;;;;;;5007619;28;20105;-53
2022/07/26 07:05:07;;;;;;;5.35;1.10;;;;;;;;;;5008616;28;20052;-53
2022/07/26 07:07:35;;;;;;;7.47;1.40;;;;;;;;;;5005471;28;20038;-55
2022/07/26 07:10:00;;;;;;;3.40;1.10;;;;;;;;;;5006090;28;20104;-51
2022/07/26 07:12:27;;;;;;;5.72;1.60;;;;;;;;;;5004200;28;20030;-56
2022/07/26 07:14:53;;;;;;;7.45;1.70;;;;;;;;;;5001715;28;20045;-55
2022/07/26 07:17:19;;;;;;;6.05;1.38;;;;;;;;;;5005381;28;20418;-53
2022/07/26 07:19:45;;;;;;;10.20;2.03;;;;;;;;;;5004606;28;20041;-54
2022/07/26 07:22:10;;;;;;;3.40;1.70;;;;;;;;;;5002438;28;20030;-55
2022/07/26 07:24:37;;;;;;;3.15;1.15;;;;;;;;;;5005435;28;20025;-56
2022/07/26 07:27:03;;;;;;;4.75;1.10;;;;;;;;;;5008274;28;20021;-55
2022/07/26 07:29:29;;;;;;;5.18;1.52;;;;;;;;;;5004550;28;20034;-55
2022/07/26 07:31:55;;;;;;;2.42;1.25;;;;;;;;;;5005464;28;20029;-54
2022/07/26 07:34:22;;;;;;;4.15;2.35;;;;;;;;;;4997603;28;20030;-55
2022/07/26 07:36:48;;;;;;;2.47;1.55;;;;;;;;;;4998674;28;20025;-55
2022/07/26 07:39:15;;;;;;;3.72;1.25;;;;;;;;;;4997728;28;20483;-56
2022/07/26 07:41:42;;;;;;;6.40;1.95;;;;;;;;;;5001895;28;20060;-51
2022/07/26 07:44:08;;;;;;;7.60;1.67;;;;;;;;;;5003664;28;20037;-55
2022/07/26 07:46:34;;;;;;;4.38;1.30;;;;;;;;;;4997625;28;20046;-52
2022/07/26 07:49:00;;;;;;;2.22;1.25;;;;;;;;;;4994659;28;20063;-52
2022/07/26 07:51:26;;;;;;;6.22;1.40;;;;;;;;;;4999390;28;20034;-54
2022/07/26 07:53:52;;;;;;;7.80;1.70;;;;;;;;;;4990738;28;20017;-55
2022/07/26 07:56:18;;;;;;;10.73;1.55;;;;;;;;;;4984878;28;20407;-55
2022/07/26 07:58:44;;;;;;;6.55;1.65;;;;;;;;;;4995902;28;20038;-56
2022/07/26 08:01:10;;;;;;;8.82;1.48;;;;;;;;;;4996030;28;22285;-54
2022/07/26 08:03:35;;;;;;;5.03;1.40;;;;;;;;;;4989888;28;20395;-52
2022/07/26 08:06:04;;;;;;;5.88;1.77;;;;;;;;;;4996697;28;20041;-56
2022/07/26 08:08:30;;;;;;;6.97;1.40;;;;;;;;;;4999881;28;20022;-56
2022/07/26 08:10:55;;;;;;;4.80;1.05;;;;;;;;;;4996490;28;20506;-56
2022/07/26 08:13:21;;;;;;;10.63;1.40;;;;;;;;;;5002454;28;20557;-54
2022/07/26 08:15:52;;;;;;;5.60;1.77;;;;;;;;;;4997787;28;20060;-56
2022/07/26 08:18:19;;;;;;;6.38;1.50;;;;;;;;;;5003788;28;20037;-55
2022/07/26 08:20:44;;;;;;;7.60;1.52;;;;;;;;;;5002117;28;20594;-52
2022/07/26 08:23:10;;;;;;;5.10;1.52;;;;;;;;;;5007126;28;20147;-55
2022/07/26 08:25:36;;;;;;;5.35;1.75;;;;;;;;;;4998044;28;20067;-50
2022/07/26 08:28:02;;;;;;;2.42;1.45;;;;;;;;;;4999247;28;20034;-54
2022/07/26 08:30:27;;;;;;;4.50;1.60;;;;;;;;;;4998034;28;20570;-54
2022/07/26 08:32:53;;;;;;;21.27;2.13;;;;;;;;;;4996866;28;20483;-55
2022/07/26 08:35:20;;;;;;;7.50;1.70;;;;;;;;;;4991627;28;20026;-56
2022/07/26 08:37:47;;;;;;;3.90;1.45;;;;;;;;;;4992155;28;20033;-57
2022/07/26 08:40:14;;;;;;;3.67;1.55;;;;;;;;;;5001279;28;20042;-52
2022/07/26 08:42:47;;;;;;;7.43;1.38;;;;;;;;;;4991926;28;20026;-57
2022/07/26 08:45:19;;;;;;;8.07;2.00;;;;;;;;;;5001832;28;20022;-54
2022/07/26 08:47:44;;;;;;;;;;;;;;;;;;5002710;28;20042;-54
2022/07/26 08:50:10;;;;;;;8.10;1.92;;;;;;;;;;5005365;28;19929;-51
2022/07/26 08:52:39;;;;;;;3.38;1.90;;;;;;;;;;4999202;28;20034;-53
2022/07/26 08:55:05;;;;;;;15.23;1.88;;;;;;;;;;5005193;28;20045;-55
2022/07/26 08:57:31;;;;;;;3.97;1.65;;;;;;;;;;5004780;28;20029;-56
2022/07/26 09:00:13;;;;;;;4.72;1.80;;;;;;;;;;5003875;28;20030;-52
2022/07/26 09:02:42;;;;;;;9.38;1.70;;;;;;;;;;5006010;28;20045;-54
2022/07/26 09:05:08;;;;;;;7.22;1.70;;;;;;;;;;5006467;28;20026;-54
2022/07/26 09:07:34;;;;;;;7.18;1.90;;;;;;;;;;5004776;28;20364;-52
2022/07/26 09:10:05;;;;;;;9.07;2.08;;;;;;;;;;5003412;28;20060;-53
2022/07/26 09:12:31;;;;;;;8.07;2.03;;;;;;;;;;5005210;28;20029;-56
2022/07/26 09:14:59;;;;;;;8.80;1.52;;;;;;;;;;5004106;28;20030;-57
2022/07/26 09:17:37;;;;;;;11.57;2.03;;;;;;;;;;5009472;28;20021;-52
2022/07/26 09:20:13;;;;;;;10.10;1.65;;;;;;;;;;5009949;28;20014;-52
2022/07/26 09:22:54;;;;;;;7.45;1.70;;;;;;;;;;5008668;28;20057;-50
2022/07/26 09:25:22;;;;;;;6.25;1.73;;;;;;;;;;5007016;28;20034;-53
2022/07/26 09:27:48;;;;;;;6.05;1.77;;;;;;;;;;5007888;28;20034;-53
2022/07/26 09:30:14;;;;;;;5.57;1.60;;;;;;;;;;5008212;28;20033;-53
2022/07/26 09:32:55;;;;;;;3.67;1.85;;;;;;;;;;5010629;28;20482;-52
2022/07/26 09:35:21;;;;;;;2.78;1.60;;;;;;;;;;5010365;28;20506;-58
2022/07/26 09:37:47;;;;;;;10.27;1.67;;;;;;;;;;5010132;28;20058;-51
2022/07/26 09:40:16;;;;;;;5.78;1.85;;;;;;;;;;5005987;28;20022;-53
2022/07/26 09:42:57;;;;;;;6.30;1.63;;;;;;;;;;5009212;28;20063;-54
2022/07/26 09:45:23;;;;;;;3.53;1.63;;;;;;;;;;5005786;28;20080;-56
2022/07/26 09:47:49;;;;;;;8.82;1.77;;;;;;;;;;5006976;28;20363;-58
2022/07/26 09:50:22;;;;;;;10.68;2.13;;;;;;;;;;5009741;28;20029;-56
2022/07/26 09:53:07;;;;;;;5.05;2.03;;;;;;;;;;5006649;28;20026;-50
2022/07/26 09:55:54;;;;;;;10.30;2.10;;;;;;;;;;5008459;28;20087;-55
2022/07/26 09:58:21;;;;;;;2.63;1.48;;;;;;;;;;5010099;28;20423;-55
2022/07/26 10:00:47;;;;;;;7.05;1.75;;;;;;;;;;5009885;28;20627;-53
2022/07/26 10:03:13;;;;;;;5.03;1.65;;;;;;;;;;5005311;28;20033;-56
2022/07/26 10:05:39;;;;;;;13.35;1.83;;;;;;;;;;5006518;28;20478;-57
2022/07/26 10:08:06;;;;;;;5.80;1.75;;;;;;;;;;5007573;28;20067;-56
2022/07/26 10:10:54;;;;;;;5.68;1.70;;;;;;;;;;5008569;28;20037;-54
2022/07/26 10:13:21;;;;;;;5.15;1.70;;;;;;;;;;5005247;28;20030;-55
2022/07/26 10:15:49;;;;;;;4.97;1.77;;;;;;;;;;5005974;28;20025;-55
2022/07/26 10:18:36;;;;;;;6.90;1.70;;;;;;;;;;5002541;28;20046;-55
2022/07/26 10:21:18;;;;;;;2.40;1.40;;;;;;;;;;5003248;28;20034;-57
2022/07/26 10:23:49;;;;;;;8.65;2.30;;;;;;;;;;4994330;28;20057;-55
2022/07/26 10:26:30;;;;;;;9.82;1.88;;;;;;;;;;4997935;28;20087;-57
2022/07/26 10:29:15;;;;;;;6.43;2.00;;;;;;;;;;4996369;28;20045;-55
2022/07/26 10:31:45;;;;;;;5.43;1.63;;;;;;;;;;5002023;28;20195;-56
2022/07/26 10:34:37;;;;;;;9.40;2.20;;;;;;;;;;4997908;28;20037;-54
2022/07/26 10:37:06;;;;;;;5.50;1.58;;;;;;;;;;5000490;28;20053;-58
2022/07/26 10:39:32;;;;;;;3.08;1.67;;;;;;;;;;5006138;28;20553;-54
2022/07/26 10:42:00;;;;;;;6.65;1.80;;;;;;;;;;5009237;28;20037;-57
2022/07/26 10:44:28;;;;;;;8.65;1.92;;;;;;;;;;5006322;28;20026;-57
2022/07/26 10:47:07;;;;;;;9.95;2.20;;;;;;;;;;5003415;28;20030;-58
2022/07/26 10:49:54;;;;;;;9.27;2.38;;;;;;;;;;5006937;28;20398;-56
2022/07/26 10:52:31;;;;;;;3.90;1.50;;;;;;;;;;5008633;28;20076;-56
2022/07/26 10:54:59;;;;;;;4.53;1.67;;;;;;;;;;4998764;28;20042;-57
2022/07/26 10:57:39;;;;;;;5.10;1.65;;;;;;;;;;5008545;28;20040;-56
2022/07/26 11:00:14;;;;;;;6.05;1.67;;;;;;;;;;5008242;28;20041;-57
2022/07/26 11:02:42;;;;;;;5.38;1.70;;;;;;;;;;5005042;28;20022;-57
2022/07/26 11:05:15;;;;;;;4.20;1.58;;;;;;;;;;5005264;28;20382;-58
2022/07/26 11:07:46;;;;;;;8.02;1.90;;;;;;;;;;5007460;28;20042;-57
2022/07/26 11:10:12;;;;;;;4.80;1.70;;;;;;;;;;5007909;28;20034;-57
2022/07/26 11:12:38;;;;;;;7.72;1.70;;;;;;;;;;5004429;28;20025;-56
2022/07/26 11:15:22;;;;;;;4.20;1.90;;;;;;;;;;4999788;28;20038;-56
2022/07/26 11:17:47;;;;;;;5.55;1.88;;;;;;;;;;5003143;28;20072;-55
2022/07/26 11:20:23;;;;;;;6.03;2.35;;;;;;;;;;5004067;28;20064;-56
2022/07/26 11:22:49;;;;;;;3.53;1.73;;;;;;;;;;5001718;28;20061;-54
2022/07/26 11:25:20;;;;;;;5.13;1.90;;;;;;;;;;4996928;28;20636;-54
2022/07/26 11:27:59;;;;;;;10.43;1.90;;;;;;;;;;5000136;28;20180;-54
2022/07/26 11:30:24;;;;;;;10.77;1.85;;;;;;;;;;5007531;28;20030;-57
2022/07/26 11:32:52;;;;;;;13.43;2.15;;;;;;;;;;5006252;28;20025;-57
2022/07/26 11:35:18;;;;;;;3.22;1.90;;;;;;;;;;5001141;28;20026;-58
2022/07/26 11:37:55;;;;;;;5.22;1.88;;;;;;;;;;5004008;28;20039;-58
2022/07/26 11:40:42;;;;;;;8.85;1.90;;;;;;;;;;5002266;28;20406;-56
2022/07/26 11:43:08;;;;;;;3.17;1.45;;;;;;;;;;5005785;28;20040;-57
2022/07/26 11:45:34;;;;;;;2.85;1.67;;;;;;;;;;5006785;28;20034;-57
2022/07/26 11:48:00;;;;;;;6.20;1.80;;;;;;;;;;5007294;28;20037;-54
2022/07/26 11:50:25;;;;;;;8.07;1.85;;;;;;;;;;5004320;28;20037;-56
2022/07/26 11:52:52;;;;;;;4.88;1.80;;;;;;;;;;5005013;28;20026;-57
2022/07/26 11:55:28;;;;;;;3.55;1.42;;;;;;;;;;5003543;28;20145;-57
2022/07/26 11:57:54;;;;;;;3.72;1.60;;;;;;;;;;5002102;28;20030;-56
2022/07/26 12:00:22;;;;;;;4.22;1.58;;;;;;;;;;5008500;28;20020;-56
2022/07/26 12:02:49;;;;;;;8.95;1.80;;;;;;;;;;5005524;28;20040;-56
2022/07/26 12:05:19;;;;;;;5.07;1.80;;;;;;;;;;5004697;28;20057;-58
2022/07/26 12:08:02;;;;;;;10.32;1.80;;;;;;;;;;5007195;28;20084;-50
2022/07/26 12:10:28;;;;;;;11.77;1.77;;;;;;;;;;5006575;28;20119;-54
2022/07/26 12:13:14;;;;;;;12.70;1.95;;;;;;;;;;5002440;28;20026;-54
2022/07/26 12:15:44;;;;;;;6.50;1.65;;;;;;;;;;5006935;28;20113;-53
2022/07/26 12:18:10;;;;;;;7.47;1.75;;;;;;;;;;5004600;28;20037;-52
2022/07/26 12:20:36;;;;;;;9.60;1.52;;;;;;;;;;5005891;28;20045;-54
2022/07/26 12:23:04;;;;;;;2.05;1.60;;;;;;;;;;5004036;28;20655;-54
2022/07/26 12:25:30;;;;;;;2.15;1.65;;;;;;;;;;5002919;28;20038;-55
2022/07/26 12:27:57;;;;;;;6.18;1.60;;;;;;;;;;5003112;28;20047;-56
2022/07/26 12:30:24;;;;;;;3.92;1.63;;;;;;;;;;5005901;28;20439;-58
2022/07/26 12:32:51;;;;;;;6.63;1.52;;;;;;;;;;5002768;28;20026;-52
2022/07/26 12:35:28;;;;;;;2.70;1.48;;;;;;;;;;5004160;28;20117;-57
2022/07/26 12:37:54;;;;;;;3.10;1.58;;;;;;;;;;5006404;28;20037;-56
2022/07/26 12:40:22;;;;;;;22.50;2.13;;;;;;;;;;5001769;28;20034;-58
2022/07/26 12:42:51;;;;;;;13.07;1.80;;;;;;;;;;5004549;28;20109;-56
2022/07/26 12:45:22;;;;;;;5.93;1.52;;;;;;;;;;4999197;28;20116;-52
2022/07/26 12:47:50;;;;;;;3.03;1.55;;;;;;;;;;5000268;28;20805;-57
2022/07/26 12:50:18;;;;;;;7.85;2.15;;;;;;;;;;4993989;28;20391;-58
2022/07/26 12:52:45;;;;;;;5.50;1.70;;;;;;;;;;5001880;28;20038;-56
2022/07/26 12:55:15;;;;;;;5.00;1.50;;;;;;;;;;4995238;28;20037;-57
2022/07/26 12:57:42;;;;;;;3.63;1.83;;;;;;;;;;4993694;28;20061;-57
2022/07/26 13:00:09;;;;;;;7.65;1.52;;;;;;;;;;4992029;28;20030;-56
2022/07/26 13:02:40;;;;;;;8.52;1.38;;;;;;;;;;4998678;28;20041;-53
2022/07/26 13:05:07;;;;;;;;;;;;;;;;;;4998415;28;20022;-56
2022/07/26 13:07:33;;;;;;;6.00;1.67;;;;;;;;;;4999366;28;19925;-57
2022/07/26 13:10:00;;;;;;;3.25;2.00;;;;;;;;;;5001612;28;20029;-55
2022/07/26 13:12:27;;;;;;;3.50;1.50;;;;;;;;;;5001234;28;20446;-55
2022/07/26 13:14:53;;;;;;;1.77;1.55;;;;;;;;;;4997781;28;20025;-52
2022/07/26 13:17:19;;;;;;;5.50;1.50;;;;;;;;;;5001061;28;20022;-55
2022/07/26 13:19:45;;;;;;;6.95;1.50;;;;;;;;;;4998850;28;20057;-57
2022/07/26 13:22:10;;;;;;;9.40;1.70;;;;;;;;;;4996888;28;20484;-56
2022/07/26 13:24:37;;;;;;;5.65;1.52;;;;;;;;;;4993743;28;20030;-57
2022/07/26 13:27:05;;;;;;;4.63;1.63;;;;;;;;;;5000538;28;20084;-55
2022/07/26 13:29:31;;;;;;;4.15;1.40;;;;;;;;;;4994751;28;20026;-55
2022/07/26 13:32:00;;;;;;;7.63;1.80;;;;;;;;;;4995097;28;20041;-53
2022/07/26 13:34:28;;;;;;;5.75;1.60;;;;;;;;;;5001640;28;20104;-56
2022/07/26 13:36:54;;;;;;;7.45;1.88;;;;;;;;;;5006127;28;20096;-57
2022/07/26 13:39:20;;;;;;;10.48;1.60;;;;;;;;;;5005839;28;20048;-55
2022/07/26 13:41:46;;;;;;;9.10;1.63;;;;;;;;;;5006025;28;20034;-55
2022/07/26 13:44:12;;;;;;;35.65;3.05;;;;;;;;;;5003720;28;20037;-58
2022/07/26 13:46:38;;;;;;;3.95;1.20;;;;;;;;;;5004428;28;20026;-57
2022/07/26 13:49:04;;;;;;;5.10;1.38;;;;;;;;;;4999461;28;20030;-56
2022/07/26 13:54:19;;;;;;;7.18;1.52;;;;;;;;;;5001347;28;20033;-58
2022/07/26 13:56:45;;;;;;;6.88;1.55;;;;;;;;;;5006265;28;20049;-55
2022/07/26 13:59:11;;;;;;;4.78;1.52;;;;;;;;;;5007890;28;20119;-56
2022/07/26 14:01:38;;;;;;;5.00;1.30;;;;;;;;;;5019274;28;20029;-57
2022/07/26 14:04:05;;;;;;;3.03;1.55;;;;;;;;;;5002808;28;20041;-55
2022/07/26 14:06:31;;;;;;;1.73;1.30;;;;;;;;;;5006852;28;20045;-55
2022/07/26 14:08:57;;;;;;;3.50;1.42;;;;;;;;;;5007628;28;20058;-52
2022/07/26 14:11:23;;;;;;;4.50;1.50;;;;;;;;;;5007784;28;20033;-54
2022/07/26 14:13:50;;;;;;;7.32;1.58;;;;;;;;;;5009757;28;20436;-51
2022/07/26 14:16:15;;;;;;;3.47;1.55;;;;;;;;;;5007807;28;20026;-55
2022/07/26 14:18:41;;;;;;;4.93;1.27;;;;;;;;;;5003520;28;20384;-55
2022/07/26 14:21:07;;;;;;;13.65;1.60;;;;;;;;;;5001948;28;20038;-54
2022/07/26 14:23:33;;;;;;;10.25;1.90;;;;;;;;;;5005002;28;20057;-50
2022/07/26 14:25:58;;;;;;;2.60;1.00;;;;;;;;;;5007276;28;20860;-54
2022/07/26 14:28:24;;;;;;;3.28;1.23;;;;;;;;;;5008833;28;20121;-54
2022/07/26 14:30:50;;;;;;;10.10;1.67;;;;;;;;;;5007722;28;20521;-54
2022/07/26 14:33:16;;;;;;;5.10;1.30;;;;;;;;;;5007773;28;20081;-54
2022/07/26 14:35:42;;;;;;;8.90;1.63;;;;;;;;;;5004024;28;20061;-55
2022/07/26 14:38:12;;;;;;;6.47;1.50;;;;;;;;;;4996420;28;20368;-54
2022/07/26 14:40:39;;;;;;;6.85;1.30;;;;;;;;;;5002909;28;20114;-54
2022/07/26 14:43:05;;;;;;;2.97;1.23;;;;;;;;;;4996833;28;20502;-55
2022/07/26 14:45:31;;;;;;;3.33;1.20;;;;;;;;;;5002581;28;20038;-54
2022/07/26 14:47:57;;;;;;;3.90;1.13;;;;;;;;;;4998735;28;20254;-54